Monday, June 25, 2018, 9:15 AM EDT
Back to Local

KRUT, Rutland, Rutland-southern Vermont Regional Airport

Location: North Clarendon, VT, United States Lat: 43.533
Local Time: 9:15 AM EDT (13:15 GMT) Lon: -72.95
Time Zone: US/Eastern Elev: 787 ft

Show me the last for .
Show Decoded

2018-06-25 08:33 METAR KRUT 251233Z AUTO VRB06KT 10SM OVC011 14/12 A3000 RMK AO2 RAE1158 P0000 $
                 =
2018-06-25 07:56 METAR KRUT 251156Z AUTO 32008KT 10SM -RA OVC009 14/12 A2998 RMK AO2 RAB45 SLP170
                 P0000 60001 7//// T01390122 10156 20133 53017 $ =
2018-06-25 07:21 METAR KRUT 251121Z AUTO 33009G14KT 10SM OVC007 13/12 A2997 RMK AO2 $ =
2018-06-25 06:56 METAR KRUT 251056Z AUTO 32006KT 10SM OVC005 13/12 A2996 RMK AO2 SLP162 T01330122
                 $ =
2018-06-25 06:41 METAR KRUT 251041Z AUTO 32008KT 10SM OVC005 13/12 A2995 RMK AO2 $ =
2018-06-25 05:56 METAR KRUT 250956Z AUTO 32011KT 9SM OVC003 13/13 A2993 RMK AO2 SLP153 T01330128
                 $ =
2018-06-25 05:48 METAR KRUT 250948Z AUTO 32007KT 6SM BR OVC003 13/13 A2993 RMK AO2 $ =
2018-06-25 04:56 METAR KRUT 250856Z AUTO 33012G16KT 10SM OVC005 14/13 A2991 RMK AO2 SLP143 P0001
                 60001 T01390133 51004 $ =
2018-06-25 04:51 METAR KRUT 250851Z AUTO 32012G16KT 10SM OVC005 14/13 A2990 RMK AO2 $ =
2018-06-25 03:56 METAR KRUT 250756Z AUTO 32007KT 10SM OVC003 14/14 A2990 RMK AO2 SLP140 T01390139
                 $ =
2018-06-25 03:11 METAR KRUT 250711Z AUTO 33009KT 3SM BR OVC003 14/14 A2989 RMK AO2 $ =
2018-06-25 03:06 METAR KRUT 250706Z AUTO 35010KT 1 1/4SM BR OVC003 14/14 A2989 RMK AO2 $ =
2018-06-25 03:03 METAR KRUT 250703Z AUTO 34010KT 3/4SM BR OVC003 14/14 A2990 RMK AO2 $ =
2018-06-25 02:56 METAR KRUT 250656Z AUTO 33008KT 1/4SM FG OVC003 14/14 A2989 RMK AO2 RAE18 SLP138
                 P0000 T01440144 $ =
2018-06-25 02:40 METAR KRUT 250640Z AUTO 33007KT 1/4SM FG OVC003 15/14 A2989 RMK AO2 RAE18 P0000
                 $ =
2018-06-25 02:33 METAR KRUT 250633Z AUTO 33007KT 3/4SM BR OVC003 15/15 A2988 RMK AO2 RAE18 P0000
                 $ =
2018-06-25 02:22 METAR KRUT 250622Z AUTO 33005KT 1 3/4SM BR OVC003 15/15 A2988 RMK AO2 VIS 1
                 1/4V3 RAE18 P0000 $ =
2018-06-25 01:56 METAR KRUT 250556Z AUTO 34006KT 5SM -RA BR OVC003 16/16 A2987 RMK AO2 RAB44
                 SLP132 P0000 6//// T01560156 10178 20156 50001 $ =
2018-06-25 00:56 METAR KRUT 250456Z AUTO 30003KT 5SM BR OVC003 16/16 A2988 RMK AO2 RAE19 SLP134
                 P0000 T01610156 402110128 $ =
2018-06-25 00:29 METAR KRUT 250429Z AUTO 33006KT 6SM BR OVC003 16/16 A2988 RMK AO2 RAE19 P0000 $
                 =
2018-06-24 23:56 METAR KRUT 250356Z AUTO 35008KT 8SM -RA OVC005 16/16 A2987 RMK AO2 RAB01 SLP131
                 P0001 T01610156 $ =
2018-06-24 23:44 METAR KRUT 250344Z AUTO 34006KT 9SM -RA OVC005 16/16 A2988 RMK AO2 RAB01 P0001 $
                 =
2018-06-24 23:23 METAR KRUT 250323Z AUTO 33004KT 6SM -RA BR BKN007 OVC060 16/16 A2987 RMK AO2
                 RAB01 CIG 004V014 P0001 $ =
2018-06-24 23:11 METAR KRUT 250311Z AUTO 34003KT 5SM -RA BR SCT007 BKN044 OVC065 16/16 A2987 RMK
                 AO2 RAB01 P0000 $ =
2018-06-24 22:56 METAR KRUT 250256Z AUTO 00000KT 10SM SCT042 OVC070 17/16 A2987 RMK AO2 RAE35
                 SLP130 6//// T01670156 51009 $ =
2018-06-24 21:56 METAR KRUT 250156Z AUTO 00000KT 10SM -RA FEW008 BKN035 OVC070 17/16 A2987 RMK
                 AO2 RAE09B42 SLP130 T01670156 PNO $ =
2018-06-24 21:54 METAR KRUT 250154Z AUTO 00000KT 10SM -RA BKN035 BKN043 OVC070 17/16 A2986 RMK
                 AO2 RAE09B42 PNO $ =
2018-06-24 21:17 METAR KRUT 250117Z AUTO 35003KT 10SM FEW012 OVC027 17/16 A2985 RMK AO2 RAE09 PNO
                 $ =
2018-06-24 20:56 METAR KRUT 250056Z AUTO 34003KT 9SM -RA BKN012 BKN018 OVC027 17/16 A2984 RMK AO2
                 RAB43 SLP122 T01720161 PNO $ =
2018-06-24 19:56 METAR KRUT 242356Z AUTO 31003KT 10SM OVC014 18/16 A2985 RMK AO2 SLP123 6////
                 T01780161 10211 20178 53005 PNO $ =
2018-06-24 19:33 METAR KRUT 242333Z AUTO 00000KT 10SM BKN012 OVC031 18/17 A2984 RMK AO2 PNO $ =
2018-06-24 18:56 METAR KRUT 242256Z AUTO 00000KT 10SM FEW025 SCT041 OVC060 18/16 A2983 RMK AO2
                 RAE42 SLP119 T01780161 PNO $ =
2018-06-24 18:54 METAR KRUT 242254Z AUTO 00000KT 10SM FEW023 OVC060 18/17 A2983 RMK AO2 RAE42 PNO
                 $ =
2018-06-24 17:56 METAR KRUT 242156Z AUTO 32004KT 10SM -RA OVC017 18/16 A2983 RMK AO2 RAB51 SLP118
                 P0000 T01830161 $ =
2018-06-24 17:42 METAR KRUT 242142Z AUTO VRB04KT 10SM FEW012 OVC017 18/16 A2983 RMK AO2 $ =
2018-06-24 17:12 METAR KRUT 242112Z AUTO 33008KT 10SM BKN013 BKN020 OVC049 19/17 A2983 RMK AO2 $
                 =
2018-06-24 16:56 METAR KRUT 242056Z AUTO 34008KT 10SM SCT016 OVC049 19/17 A2982 RMK AO2 SLP115
                 T01940167 55001 $ =
2018-06-24 15:56 METAR KRUT 241956Z AUTO 34003KT 10SM OVC022 20/17 A2982 RMK AO2 SLP113 T02000172
                 $ =
2018-06-24 15:11 METAR KRUT 241911Z AUTO 36005KT 10SM SCT013 BKN028 OVC044 20/17 A2982 RMK AO2 $
                 =
2018-06-24 14:56 METAR KRUT 241856Z AUTO 34005KT 10SM BKN013 OVC046 20/17 A2982 RMK AO2 SLP113
                 T02000167 $ =
2018-06-24 14:25 METAR KRUT 241825Z AUTO 01005KT 10SM BKN011 BKN021 OVC085 20/17 A2982 RMK AO2 $
                 =
2018-06-24 13:56 METAR KRUT 241756Z AUTO 34005KT 10SM FEW009 OVC019 19/17 A2983 RMK AO2 SLP116
                 T01890167 10189 20139 55005 $ =
2018-06-24 13:53 METAR KRUT 241753Z AUTO 01007KT 10SM SCT009 OVC019 19/17 A2982 RMK AO2 $ =
2018-06-24 13:11 METAR KRUT 241711Z AUTO VRB03KT 10SM FEW009 OVC014 18/17 A2983 RMK AO2 $ =
2018-06-24 12:56 METAR KRUT 241656Z AUTO 35005KT 10SM BKN009 OVC014 18/17 A2983 RMK AO2 SLP116
                 T01830167 $ =
2018-06-24 12:50 METAR KRUT 241650Z AUTO 34004KT 10SM BKN009 OVC014 18/17 A2983 RMK AO2 $ =
2018-06-24 11:56 METAR KRUT 241556Z AUTO 00000KT 10SM OVC010 18/16 A2984 RMK AO2 SLP122 T01780161
                 $ =
2018-06-24 11:38 METAR KRUT 241538Z AUTO 00000KT 10SM OVC010 18/16 A2983 RMK AO2 $ =
2018-06-24 10:56 METAR KRUT 241456Z AUTO 00000KT 10SM OVC008 17/16 A2983 RMK AO2 SLP117 T01720156
                 50006 $ =
2018-06-24 09:56 METAR KRUT 241356Z AUTO 00000KT 10SM OVC008 15/14 A2983 RMK AO2 SLP121 T01500144
                 $ =

Support USWX by starting your Amazon purchase here.